createdAt,value
2022-12-31T00:01:32.733Z,100725.53
2022-12-31T00:03:59.256Z,100633.97
2022-12-31T00:06:28.849Z,100676.81
2022-12-31T00:08:57.419Z,100713.59
2022-12-31T00:11:25.577Z,100770.84
2022-12-31T00:13:52.970Z,100761.69
2022-12-31T00:16:21.618Z,100670.81
2022-12-31T00:18:50.267Z,100728.41
2022-12-31T00:21:17.825Z,100657.41
2022-12-31T00:23:44.927Z,100679.47
2022-12-31T00:26:20.971Z,100686.50
2022-12-31T00:28:48.715Z,100758.84
2022-12-31T00:31:19.182Z,100687.81
2022-12-31T00:33:46.355Z,100783.91
2022-12-31T00:36:12.762Z,100796.22
2022-12-31T00:38:39.996Z,100772.72
2022-12-31T00:41:07.184Z,100757.88
2022-12-31T00:43:34.482Z,100745.50
2022-12-31T00:46:01.365Z,100772.13
2022-12-31T00:48:28.739Z,100767.34
2022-12-31T00:50:56.013Z,100753.94
2022-12-31T00:53:23.378Z,100783.38
2022-12-31T00:55:50.091Z,100919.25
2022-12-31T00:58:16.608Z,100915.03
2022-12-31T01:00:43.472Z,100867.53
2022-12-31T01:03:10.316Z,100919.53
2022-12-31T01:05:38.169Z,100907.91
2022-12-31T01:08:05.520Z,100913.72
2022-12-31T01:10:31.918Z,100847.13
2022-12-31T01:12:59.572Z,100923.81
2022-12-31T01:15:26.071Z,100854.00
2022-12-31T01:17:52.611Z,100970.66
2022-12-31T01:20:19.039Z,100983.72
2022-12-31T01:22:45.404Z,100998.66
2022-12-31T01:25:11.827Z,100944.66
2022-12-31T01:27:38.261Z,101055.75
2022-12-31T01:30:05.459Z,100981.22
2022-12-31T01:32:32.357Z,101020.59
2022-12-31T01:34:59.182Z,101048.53
2022-12-31T01:37:25.800Z,100958.53
2022-12-31T01:39:52.200Z,100987.84
2022-12-31T01:42:18.645Z,101050.97
2022-12-31T01:44:49.278Z,101028.84
2022-12-31T01:47:20.027Z,101055.19
2022-12-31T01:49:54.349Z,101037.09
2022-12-31T01:52:22.427Z,101059.00
2022-12-31T01:54:57.943Z,101044.34
2022-12-31T01:57:26.997Z,101075.91
2022-12-31T01:59:56.091Z,101098.22
2022-12-31T02:02:23.703Z,101104.63
2022-12-31T02:04:54.647Z,101110.69
2022-12-31T02:07:21.587Z,101119.31
2022-12-31T02:09:48.450Z,101157.94
2022-12-31T02:12:15.627Z,101087.13
2022-12-31T02:14:49.181Z,101093.13
2022-12-31T02:17:34.086Z,101162.31
2022-12-31T02:20:26.195Z,101169.13
2022-12-31T02:23:11.131Z,101170.53
2022-12-31T02:25:59.279Z,101164.69
2022-12-31T02:29:07.641Z,101161.47
2022-12-31T02:31:48.574Z,101163.06
2022-12-31T02:34:27.610Z,101142.75
2022-12-31T02:36:57.806Z,101061.13
2022-12-31T02:39:24.679Z,101154.53
2022-12-31T02:41:51.612Z,101198.56
2022-12-31T02:44:25.372Z,101205.75
2022-12-31T02:47:09.873Z,101183.44
2022-12-31T02:49:48.620Z,101307.66
2022-12-31T02:52:15.044Z,101342.25
2022-12-31T02:55:20.157Z,101375.56
2022-12-31T02:58:13.421Z,101374.19
2022-12-31T03:00:50.064Z,101489.69
2022-12-31T03:03:19.258Z,101489.59
2022-12-31T03:05:48.328Z,101547.78
2022-12-31T03:08:22.504Z,101567.38
2022-12-31T03:10:49.331Z,101611.66
2022-12-31T03:13:16.088Z,101624.47
2022-12-31T03:15:42.558Z,101653.84
2022-12-31T03:18:13.760Z,101767.38
2022-12-31T03:20:43.615Z,101826.00
2022-12-31T03:23:13.686Z,101864.66
2022-12-31T03:25:40.346Z,101921.88
2022-12-31T03:28:11.379Z,102002.66
2022-12-31T03:30:41.032Z,102059.28
2022-12-31T03:33:08.160Z,102162.59
2022-12-31T03:35:36.937Z,102176.97
2022-12-31T03:38:04.517Z,102292.00
2022-12-31T03:40:32.479Z,102437.91
2022-12-31T03:42:58.966Z,102603.53
2022-12-31T03:45:25.530Z,102634.94
2022-12-31T03:47:52.075Z,102936.94
2022-12-31T03:50:19.496Z,103199.13
2022-12-31T03:52:46.153Z,103411.00
2022-12-31T03:55:13.345Z,103836.59
2022-12-31T03:57:40.771Z,104626.25
2022-12-31T04:00:10.604Z,105387.09
2022-12-31T04:02:37.597Z,105823.38
2022-12-31T04:05:04.912Z,105684.34
2022-12-31T04:07:31.607Z,105807.97
2022-12-31T04:09:58.491Z,106343.09
2022-12-31T04:12:25.219Z,106480.88
2022-12-31T04:14:51.847Z,105737.66
2022-12-31T04:17:18.397Z,106610.66
2022-12-31T04:19:45.016Z,106956.28
2022-12-31T04:22:11.632Z,107328.63
2022-12-31T04:24:38.240Z,107607.81
2022-12-31T04:27:07.803Z,107406.28
2022-12-31T04:29:35.365Z,107775.56
2022-12-31T04:32:02.526Z,108636.50
2022-12-31T04:34:29.206Z,109290.31
2022-12-31T04:36:55.884Z,108698.34
2022-12-31T04:39:22.480Z,109022.22
2022-12-31T04:41:49.045Z,109441.34
2022-12-31T04:44:15.697Z,108979.56
2022-12-31T04:46:42.373Z,108498.00
2022-12-31T04:49:09.177Z,108629.28
2022-12-31T04:51:36.130Z,108827.47
2022-12-31T04:54:02.623Z,108421.59
2022-12-31T04:56:29.192Z,108412.94
2022-12-31T04:58:56.465Z,108581.28
2022-12-31T05:01:23.854Z,108224.97
2022-12-31T05:03:50.696Z,107983.50
2022-12-31T05:06:19.754Z,108270.31
2022-12-31T05:08:46.702Z,108266.78
2022-12-31T05:11:13.926Z,108168.16
2022-12-31T05:13:40.393Z,108029.38
2022-12-31T05:16:07.777Z,108211.56
2022-12-31T05:18:35.291Z,108428.19
2022-12-31T05:21:02.204Z,108580.22
2022-12-31T05:23:29.213Z,108426.31
2022-12-31T05:25:56.108Z,108760.75
2022-12-31T05:28:23.022Z,109770.09
2022-12-31T05:30:51.263Z,109920.69
2022-12-31T05:33:19.081Z,110220.81
2022-12-31T05:35:45.513Z,110289.66
2022-12-31T05:38:12.139Z,107227.81
2022-12-31T05:40:38.611Z,107365.88
2022-12-31T05:43:05.209Z,107441.97
2022-12-31T05:45:31.666Z,107438.69
2022-12-31T05:47:58.430Z,108292.47
2022-12-31T05:50:25.134Z,108285.78
2022-12-31T05:52:51.652Z,108211.84
2022-12-31T05:55:18.242Z,108341.03
2022-12-31T05:57:44.831Z,108624.41
2022-12-31T06:00:11.922Z,108654.28
2022-12-31T06:02:38.503Z,108474.59
2022-12-31T06:05:05.448Z,108435.03
2022-12-31T06:07:31.969Z,108272.34
2022-12-31T06:09:58.515Z,108270.16
2022-12-31T06:12:25.054Z,108170.09
2022-12-31T06:14:51.517Z,107352.97
2022-12-31T06:17:17.941Z,107569.34
2022-12-31T06:19:44.355Z,107322.06
2022-12-31T06:22:10.841Z,107111.25
2022-12-31T06:24:37.272Z,106734.03
2022-12-31T06:27:03.850Z,106404.13
2022-12-31T06:29:30.307Z,106119.13
2022-12-31T06:31:57.082Z,105831.25
2022-12-31T06:34:23.552Z,105493.94
2022-12-31T06:36:50.036Z,105221.84
2022-12-31T06:39:16.526Z,104917.22
2022-12-31T06:41:43.020Z,104740.91
2022-12-31T06:44:09.535Z,104677.28
2022-12-31T06:46:36.091Z,104550.16
2022-12-31T06:49:02.694Z,104435.31
2022-12-31T06:51:29.217Z,104330.25
2022-12-31T06:53:55.766Z,104300.84
2022-12-31T06:56:31.236Z,104234.06
2022-12-31T06:59:00.529Z,104123.44
2022-12-31T07:01:59.507Z,103979.56
2022-12-31T07:05:02.328Z,103793.63
2022-12-31T07:07:38.750Z,103747.00
2022-12-31T07:10:29.723Z,103630.34
2022-12-31T07:13:24.035Z,103532.78
2022-12-31T07:16:10.251Z,103394.09
2022-12-31T07:19:26.277Z,103245.66
2022-12-31T07:21:55.424Z,103177.50
2022-12-31T07:24:22.393Z,103012.78
2022-12-31T07:27:12.670Z,102923.91
2022-12-31T07:30:18.272Z,103204.41
2022-12-31T07:33:30.040Z,103235.66
2022-12-31T07:36:02.276Z,103155.97
2022-12-31T07:38:37.351Z,103243.22
2022-12-31T07:41:22.135Z,103863.72
2022-12-31T07:44:04.498Z,103771.78
2022-12-31T07:46:44.704Z,103527.19
2022-12-31T07:49:13.174Z,103620.94
2022-12-31T07:51:40.386Z,103613.75
2022-12-31T07:54:13.411Z,103589.75
2022-12-31T07:56:41.113Z,103705.16
2022-12-31T07:59:33.465Z,103668.38
2022-12-31T08:02:06.766Z,103623.75
2022-12-31T08:05:01.469Z,103528.34
2022-12-31T08:07:40.979Z,103339.09
2022-12-31T08:10:18.410Z,103218.13
2022-12-31T08:12:49.105Z,103073.09
2022-12-31T08:15:18.680Z,102977.28
2022-12-31T08:17:45.773Z,103230.38
2022-12-31T08:20:14.601Z,103193.38
2022-12-31T08:23:06.033Z,103096.09
2022-12-31T08:25:38.509Z,103002.03
2022-12-31T08:28:29.474Z,102887.91
2022-12-31T08:30:55.955Z,102775.25
2022-12-31T08:33:43.510Z,102685.50
2022-12-31T08:36:16.011Z,102592.03
2022-12-31T08:38:45.655Z,102533.31
2022-12-31T08:41:23.605Z,102477.41
2022-12-31T08:44:03.340Z,102425.78
2022-12-31T08:46:59.910Z,102320.97
2022-12-31T08:49:28.372Z,102119.53
2022-12-31T08:51:55.267Z,102017.19
2022-12-31T08:54:22.127Z,101911.03
2022-12-31T08:57:26.288Z,101852.19
2022-12-31T09:00:12.916Z,101794.13
2022-12-31T09:03:04.706Z,101771.63
2022-12-31T09:05:54.471Z,101797.88
2022-12-31T09:08:45.294Z,101738.63
2022-12-31T09:11:22.872Z,101701.31
2022-12-31T09:14:04.858Z,101699.94
2022-12-31T09:16:43.329Z,101636.59
2022-12-31T09:19:10.050Z,101612.84
2022-12-31T09:21:36.689Z,101580.75
2022-12-31T09:24:09.187Z,101526.75
2022-12-31T09:26:44.986Z,101600.16
2022-12-31T09:29:30.176Z,101612.22
2022-12-31T09:32:05.847Z,101619.09
2022-12-31T09:34:32.267Z,101598.50
2022-12-31T09:37:15.586Z,101582.13
2022-12-31T09:39:47.478Z,101562.44
2022-12-31T09:42:57.817Z,101588.59
2022-12-31T09:45:36.304Z,101597.97
2022-12-31T09:48:21.308Z,101597.59
2022-12-31T09:50:59.914Z,101574.59
2022-12-31T09:53:29.342Z,101586.28
2022-12-31T09:56:29.954Z,101582.47
2022-12-31T09:59:21.371Z,101579.00
2022-12-31T10:01:47.912Z,101581.03
2022-12-31T10:04:30.185Z,101569.66
2022-12-31T10:07:29.095Z,101580.84
2022-12-31T10:09:59.982Z,101561.31
2022-12-31T10:12:32.454Z,101491.00
2022-12-31T10:15:04.997Z,101521.28
2022-12-31T10:17:49.595Z,101502.84
2022-12-31T10:20:37.772Z,101479.63
2022-12-31T10:23:40.537Z,101474.03
2022-12-31T10:26:22.803Z,101460.78
2022-12-31T10:29:08.260Z,101427.84
2022-12-31T10:31:59.161Z,101395.75
2022-12-31T10:34:40.952Z,101373.22
2022-12-31T10:37:24.511Z,101335.31
2022-12-31T10:39:56.881Z,101327.00
2022-12-31T10:42:45.345Z,101302.66
2022-12-31T10:45:21.171Z,101272.75
2022-12-31T10:47:53.525Z,101268.75
2022-12-31T10:50:39.115Z,101249.75
2022-12-31T10:53:17.047Z,101252.94
2022-12-31T10:56:11.301Z,101230.97
2022-12-31T10:58:56.731Z,101217.81
2022-12-31T11:01:46.741Z,101207.97
2022-12-31T11:04:38.379Z,101190.34
2022-12-31T11:07:50.033Z,101198.56
2022-12-31T11:10:24.639Z,101202.72
2022-12-31T11:13:24.620Z,101187.34
2022-12-31T11:16:09.609Z,101124.53
2022-12-31T11:19:10.484Z,101163.78
2022-12-31T11:22:13.164Z,101117.78
2022-12-31T11:25:04.017Z,101192.88
2022-12-31T11:27:49.276Z,101200.81
2022-12-31T11:30:29.828Z,101193.63
2022-12-31T11:32:56.386Z,101280.72
2022-12-31T11:35:37.994Z,101312.56
2022-12-31T11:38:29.391Z,101305.63
2022-12-31T11:41:11.730Z,101311.22
2022-12-31T11:44:01.883Z,101362.44
2022-12-31T11:46:49.936Z,101360.69
2022-12-31T11:49:35.099Z,101375.63
2022-12-31T11:52:22.139Z,101392.28
2022-12-31T11:55:02.376Z,101382.47
2022-12-31T11:57:37.262Z,101412.47
2022-12-31T12:00:25.184Z,101436.47
2022-12-31T12:03:01.222Z,101380.88
2022-12-31T12:05:28.794Z,101422.06
2022-12-31T12:07:55.937Z,101432.66
2022-12-31T12:10:37.899Z,101372.75
2022-12-31T12:13:27.184Z,101425.81
2022-12-31T12:16:07.254Z,101444.97
2022-12-31T12:18:40.900Z,101436.47
2022-12-31T12:21:17.646Z,101428.75
2022-12-31T12:24:18.468Z,101417.41
2022-12-31T12:26:45.280Z,101382.53
2022-12-31T12:29:17.160Z,101400.94
2022-12-31T12:31:59.841Z,101394.41
2022-12-31T12:34:32.919Z,101348.22
2022-12-31T12:36:59.480Z,101335.41
2022-12-31T12:39:31.216Z,101373.53
2022-12-31T12:42:03.910Z,101374.28
2022-12-31T12:44:31.305Z,101313.88
2022-12-31T12:46:59.257Z,101366.66
2022-12-31T12:49:31.539Z,101339.22
2022-12-31T12:52:00.728Z,101301.09
2022-12-31T12:55:00.655Z,101333.56
2022-12-31T12:57:46.148Z,101330.03
2022-12-31T13:00:22.448Z,101318.63
2022-12-31T13:03:10.599Z,101331.63
2022-12-31T13:06:05.101Z,101304.03
2022-12-31T13:08:40.353Z,101300.53
2022-12-31T13:11:12.908Z,101288.31
2022-12-31T13:13:56.527Z,101238.66
2022-12-31T13:16:35.033Z,101221.66
2022-12-31T13:19:24.176Z,101172.47
2022-12-31T13:22:18.688Z,101227.72
2022-12-31T13:25:15.409Z,101219.97
2022-12-31T13:27:46.205Z,101196.50
2022-12-31T13:30:17.990Z,101178.47
2022-12-31T13:32:58.162Z,101160.75
2022-12-31T13:35:29.749Z,101085.50
2022-12-31T13:38:06.048Z,101122.47
2022-12-31T13:40:48.715Z,101092.16
2022-12-31T13:43:24.118Z,101086.44
2022-12-31T13:46:00.903Z,101057.28
2022-12-31T13:48:35.289Z,101035.75
2022-12-31T13:51:14.970Z,101031.78
2022-12-31T13:54:06.577Z,101020.78
2022-12-31T13:56:38.748Z,101006.47
2022-12-31T13:59:22.934Z,101000.63
2022-12-31T14:01:59.023Z,100971.13
2022-12-31T14:04:33.324Z,100971.59
2022-12-31T14:07:12.385Z,100986.81
2022-12-31T14:09:39.100Z,100968.75
2022-12-31T14:12:30.038Z,100985.22
2022-12-31T14:15:15.974Z,100943.59
2022-12-31T14:18:10.184Z,100984.19
2022-12-31T14:20:48.731Z,100933.09
2022-12-31T14:23:21.415Z,100959.34
2022-12-31T14:26:01.908Z,100949.59
2022-12-31T14:28:47.970Z,100959.81
2022-12-31T14:31:31.570Z,100972.50
2022-12-31T14:34:03.555Z,100977.75
2022-12-31T14:36:32.804Z,100978.00
2022-12-31T14:39:43.685Z,100933.19
2022-12-31T14:42:16.146Z,100959.53
2022-12-31T14:44:58.040Z,100927.13
2022-12-31T14:47:40.876Z,100979.38
2022-12-31T14:50:17.789Z,100954.53
2022-12-31T14:53:08.158Z,100954.03
2022-12-31T14:55:39.931Z,100945.00
2022-12-31T14:58:41.863Z,100947.72
2022-12-31T15:01:17.281Z,100927.41
2022-12-31T15:03:46.105Z,100917.44
2022-12-31T15:06:37.826Z,100919.19
2022-12-31T15:09:16.443Z,100921.34
2022-12-31T15:12:20.929Z,100926.03
2022-12-31T15:15:11.688Z,100885.59
2022-12-31T15:18:06.138Z,100923.38
2022-12-31T15:21:00.310Z,100923.69
2022-12-31T15:23:38.836Z,100927.66
2022-12-31T15:26:06.770Z,100922.72
2022-12-31T15:28:40.335Z,100906.53
2022-12-31T15:31:20.798Z,100898.34
2022-12-31T15:34:33.290Z,100892.59
2022-12-31T15:37:02.625Z,100908.38
2022-12-31T15:39:31.947Z,100888.84
2022-12-31T15:42:36.887Z,100886.34
2022-12-31T15:45:01.453Z,100883.91
2022-12-31T15:47:41.435Z,100877.41
2022-12-31T15:50:15.282Z,100862.81
2022-12-31T15:52:44.764Z,100862.19
2022-12-31T15:55:49.732Z,100847.03
2022-12-31T15:58:19.844Z,100836.16
2022-12-31T16:00:52.229Z,100862.06
2022-12-31T16:03:24.670Z,100808.06
2022-12-31T16:06:00.358Z,100838.75
2022-12-31T16:08:31.088Z,100815.25
2022-12-31T16:10:59.092Z,100780.50
2022-12-31T16:13:27.577Z,100828.50
2022-12-31T16:16:02.875Z,100840.38
2022-12-31T16:18:39.567Z,100814.75
2022-12-31T16:21:07.099Z,100828.28
2022-12-31T16:23:37.474Z,100815.16
2022-12-31T16:26:11.134Z,100819.81
2022-12-31T16:28:37.796Z,100816.00
2022-12-31T16:31:07.515Z,100817.59
2022-12-31T16:33:34.182Z,100804.00
2022-12-31T16:36:01.887Z,100822.44
2022-12-31T16:38:34.356Z,100815.75
2022-12-31T16:41:01.120Z,100804.81
2022-12-31T16:43:39.416Z,100780.53
2022-12-31T16:46:08.932Z,100808.91
2022-12-31T16:48:36.202Z,100793.03
2022-12-31T16:51:03.709Z,100793.16
2022-12-31T16:53:34.401Z,100783.34
2022-12-31T16:56:05.972Z,100807.63
2022-12-31T16:58:36.981Z,100765.31
2022-12-31T17:01:12.663Z,100797.78
2022-12-31T17:03:44.146Z,100724.22
2022-12-31T17:06:16.397Z,100794.97
2022-12-31T17:08:49.410Z,100774.38
2022-12-31T17:11:37.087Z,100732.50
2022-12-31T17:14:13.693Z,100762.97
2022-12-31T17:17:04.295Z,100761.28
2022-12-31T17:19:33.843Z,100756.53
2022-12-31T17:22:02.129Z,100698.63
2022-12-31T17:24:29.074Z,100738.44
2022-12-31T17:27:03.687Z,100736.84
2022-12-31T17:29:30.357Z,100750.13
2022-12-31T17:32:02.847Z,100770.84
2022-12-31T17:34:34.506Z,100773.09
2022-12-31T17:37:07.470Z,100780.97
2022-12-31T17:39:43.636Z,100765.56
2022-12-31T17:42:11.557Z,100709.25
2022-12-31T17:44:43.140Z,100772.81
2022-12-31T17:47:12.116Z,100762.47
2022-12-31T17:49:38.903Z,100765.97
2022-12-31T17:52:11.892Z,100757.69
2022-12-31T17:54:38.899Z,100761.81
2022-12-31T17:57:05.909Z,100773.47
2022-12-31T17:59:34.588Z,100770.00
2022-12-31T18:02:03.376Z,100769.13
2022-12-31T18:04:30.062Z,100794.97
2022-12-31T18:06:56.607Z,100767.47
2022-12-31T18:09:23.066Z,100776.38
2022-12-31T18:11:49.757Z,100779.38
2022-12-31T18:14:16.525Z,100771.53
2022-12-31T18:16:43.105Z,100772.44
2022-12-31T18:19:37.979Z,100784.91
2022-12-31T18:22:01.535Z,100778.38
2022-12-31T18:24:27.951Z,100788.28
2022-12-31T18:26:54.476Z,100776.03
2022-12-31T18:29:22.345Z,100793.50
2022-12-31T18:31:49.946Z,100842.22
2022-12-31T18:34:17.702Z,100842.38
2022-12-31T18:36:44.529Z,100795.03
2022-12-31T18:39:10.999Z,100849.56
2022-12-31T18:41:42.946Z,100855.53
2022-12-31T18:44:12.449Z,100833.16
2022-12-31T18:46:39.019Z,100836.38
2022-12-31T18:49:05.485Z,100857.59
2022-12-31T18:51:32.719Z,100860.94
2022-12-31T18:54:03.471Z,100825.91
2022-12-31T18:56:30.291Z,100872.94
2022-12-31T18:58:56.899Z,100892.34
2022-12-31T19:01:29.502Z,100874.50
2022-12-31T19:04:01.950Z,100834.88
2022-12-31T19:06:29.427Z,100892.84
2022-12-31T19:08:56.781Z,100813.84
2022-12-31T19:11:23.874Z,100879.63
2022-12-31T19:13:50.552Z,100886.81
2022-12-31T19:16:17.139Z,100864.69
2022-12-31T19:18:43.652Z,100877.69
2022-12-31T19:21:19.167Z,100887.44
2022-12-31T19:23:46.263Z,100817.09
2022-12-31T19:26:17.656Z,100867.97
2022-12-31T19:28:45.329Z,100881.13
2022-12-31T19:31:12.117Z,100837.75
2022-12-31T19:33:39.054Z,100795.19
2022-12-31T19:36:06.127Z,100772.50
2022-12-31T19:38:33.792Z,100857.25
2022-12-31T19:41:01.318Z,101231.34
2022-12-31T19:43:27.894Z,101804.41
2022-12-31T19:45:54.386Z,102490.50
2022-12-31T19:48:28.733Z,102965.38
2022-12-31T19:50:59.128Z,103362.72
2022-12-31T19:53:27.498Z,103638.41
2022-12-31T19:55:54.206Z,103963.38
2022-12-31T19:58:23.311Z,103840.94
2022-12-31T20:00:55.562Z,103904.34
2022-12-31T20:03:23.970Z,103821.94
2022-12-31T20:05:50.867Z,103886.31
2022-12-31T20:08:17.589Z,103896.25
2022-12-31T20:10:44.215Z,104033.53
2022-12-31T20:13:10.722Z,104036.34
2022-12-31T20:15:40.195Z,103999.44
2022-12-31T20:18:06.793Z,103868.75
2022-12-31T20:20:33.352Z,103858.75
2022-12-31T20:22:59.991Z,103746.69
2022-12-31T20:25:26.527Z,103587.59
2022-12-31T20:27:54.106Z,103825.22
2022-12-31T20:30:23.543Z,103656.34
2022-12-31T20:32:50.472Z,103806.91
2022-12-31T20:35:17.037Z,103661.78
2022-12-31T20:37:43.483Z,103522.13
2022-12-31T20:40:10.723Z,103740.91
2022-12-31T20:42:37.183Z,103684.16
2022-12-31T20:45:04.014Z,103608.97
2022-12-31T20:47:30.546Z,103670.16
2022-12-31T20:50:12.920Z,103723.97
2022-12-31T20:52:39.819Z,103409.63
2022-12-31T20:55:06.852Z,103574.94
2022-12-31T20:57:34.124Z,103603.88
2022-12-31T21:00:01.203Z,103534.94
2022-12-31T21:02:40.961Z,103545.97
2022-12-31T21:05:08.993Z,103504.66
2022-12-31T21:07:35.698Z,103533.59
2022-12-31T21:10:02.144Z,103634.81
2022-12-31T21:12:28.570Z,103573.91
2022-12-31T21:14:55.173Z,103656.69
2022-12-31T21:17:21.739Z,103443.16
2022-12-31T21:19:48.242Z,103327.00
2022-12-31T21:22:14.718Z,103761.19
2022-12-31T21:24:41.254Z,103520.91
2022-12-31T21:27:07.888Z,103484.88
2022-12-31T21:29:35.579Z,103304.59
2022-12-31T21:32:03.786Z,103394.88
2022-12-31T21:34:30.399Z,103271.19
2022-12-31T21:36:56.952Z,103274.28
2022-12-31T21:39:23.429Z,103467.09
2022-12-31T21:41:49.901Z,103357.84
2022-12-31T21:44:17.104Z,103307.69
2022-12-31T21:47:16.084Z,103137.22
2022-12-31T21:49:30.048Z,103123.06
2022-12-31T21:51:56.581Z,102993.94
2022-12-31T21:54:23.054Z,103111.22
2022-12-31T21:56:49.544Z,103009.00
2022-12-31T21:59:16.049Z,103252.34
2022-12-31T22:01:42.737Z,103092.97
2022-12-31T22:04:28.289Z,103297.03
2022-12-31T22:06:55.696Z,103018.66
2022-12-31T22:09:22.220Z,102751.25
2022-12-31T22:11:48.706Z,102941.63
2022-12-31T22:14:15.205Z,103040.56
2022-12-31T22:16:41.760Z,102858.47
2022-12-31T22:19:08.199Z,102681.06
2022-12-31T22:21:34.653Z,102878.53
2022-12-31T22:24:01.252Z,102902.59
2022-12-31T22:26:29.033Z,102985.44
2022-12-31T22:28:55.535Z,102802.00
2022-12-31T22:31:23.423Z,103069.66
2022-12-31T22:33:49.959Z,102968.09
2022-12-31T22:36:18.730Z,102874.03
2022-12-31T22:38:45.980Z,102762.28
2022-12-31T22:41:13.729Z,102636.66
2022-12-31T22:43:42.607Z,102753.09
2022-12-31T22:46:12.236Z,102708.09
2022-12-31T22:48:39.239Z,102598.91
2022-12-31T22:51:06.880Z,102848.13
2022-12-31T22:53:33.437Z,102942.59
2022-12-31T22:55:59.947Z,102755.25
2022-12-31T22:58:27.274Z,102649.94
2022-12-31T23:00:53.765Z,102554.09
2022-12-31T23:03:20.563Z,102576.34
2022-12-31T23:05:50.333Z,102596.69
2022-12-31T23:08:22.828Z,102540.78
2022-12-31T23:10:52.189Z,102512.03
2022-12-31T23:13:18.662Z,102390.34
2022-12-31T23:15:45.364Z,102554.91
2022-12-31T23:18:11.985Z,102600.66
2022-12-31T23:20:38.541Z,102394.75
2022-12-31T23:23:06.464Z,102564.63
2022-12-31T23:25:42.901Z,102378.81
2022-12-31T23:28:12.908Z,102379.84
2022-12-31T23:30:40.542Z,102507.50
2022-12-31T23:33:07.912Z,102262.88
2022-12-31T23:35:34.480Z,102393.94
2022-12-31T23:38:00.911Z,102399.63
2022-12-31T23:40:27.337Z,102543.25
2022-12-31T23:42:53.723Z,102341.75
2022-12-31T23:45:20.117Z,102181.91
2022-12-31T23:47:46.580Z,102876.41
2022-12-31T23:50:12.977Z,102416.25
2022-12-31T23:52:39.408Z,102442.81
2022-12-31T23:55:06.199Z,102671.88
2022-12-31T23:57:32.635Z,102454.19
2022-12-31T23:59:59.133Z,102477.50
